Time;durP1;ratioP1;P1;durP2;ratioP2;P2;SDS_P1;SDS_P2;PMS_P1;PMS_P2;Temp;Humidity;BMP_temperature;BMP_pressure;BME280_temperature;BME280_humidity;BME280_pressure;Samples;Min_cycle;Max_cycle;Signal;HPM_P1;HPM_P2
2024/01/17 00:01:15;;;;;;;6.47;4.10;;;-5.60;99.90;;;-4.78;100.00;96796.00;5038922;28;20464;-81
2024/01/17 00:03:44;;;;;;;7.87;4.37;;;-5.40;99.90;;;-4.80;100.00;96772.38;5039430;28;20461;-82
2024/01/17 00:06:12;;;;;;;8.20;4.23;;;-5.50;99.90;;;-4.82;100.00;96766.56;5037347;28;20463;-82
2024/01/17 00:08:41;;;;;;;8.10;4.10;;;-5.50;99.90;;;-4.89;100.00;96757.81;5038162;28;20852;-82
2024/01/17 00:11:11;;;;;;;6.83;3.80;;;-5.60;99.90;;;-4.98;100.00;96750.91;5041179;28;20433;-81
2024/01/17 00:13:40;;;;;;;5.47;3.60;;;-5.70;99.90;;;-4.93;100.00;96751.38;5039008;28;20517;-82
2024/01/17 00:16:09;;;;;;;3.43;2.77;;;-5.60;99.90;;;-4.88;100.00;96754.34;5038904;28;20435;-82
2024/01/17 00:18:37;;;;;;;5.70;3.57;;;-5.60;99.90;;;-4.85;100.00;96755.81;5040526;28;20494;-82
2024/01/17 00:21:06;;;;;;;5.90;3.80;;;-5.50;99.90;;;-4.86;100.00;96757.56;5041167;28;20486;-82
2024/01/17 00:23:34;;;;;;;7.53;3.43;;;-5.60;99.90;;;-4.86;100.00;96755.00;5040445;28;21083;-82
2024/01/17 00:26:03;;;;;;;6.73;4.53;;;-5.60;99.90;;;-4.93;100.00;96756.47;5041989;28;20462;-81
2024/01/17 00:28:32;;;;;;;5.00;3.40;;;-5.70;99.90;;;-5.02;100.00;96762.28;5042536;28;20455;-81
2024/01/17 00:31:02;;;;;;;5.47;3.40;;;-5.70;99.90;;;-4.96;100.00;96771.97;5044237;28;20457;-82
2024/01/17 00:33:31;;;;;;;4.60;3.33;;;-5.70;99.90;;;-4.96;100.00;96750.81;5043937;28;20457;-82
2024/01/17 00:35:59;;;;;;;6.53;3.80;;;-5.70;99.90;;;-5.02;100.00;96758.91;5042304;28;20482;-82
2024/01/17 00:38:28;;;;;;;5.50;3.63;;;-5.80;99.90;;;-4.96;100.00;96768.66;5041412;28;20500;-82
2024/01/17 00:40:57;;;;;;;9.00;3.80;;;-5.60;99.90;;;-4.95;100.00;96752.41;5040221;28;20460;-82
2024/01/17 00:43:25;;;;;;;6.37;3.70;;;-5.70;99.90;;;-4.89;100.00;96742.53;5040609;28;20456;-82
2024/01/17 00:45:54;;;;;;;10.10;3.80;;;-5.60;99.90;;;-4.95;100.00;96745.56;5037974;28;20575;-81
2024/01/17 00:48:24;;;;;;;5.47;3.10;;;-5.60;99.90;;;-4.99;100.00;96754.38;5037574;28;20517;-82
2024/01/17 00:50:52;;;;;;;9.50;4.00;;;-5.70;99.90;;;-4.94;100.00;96748.94;5038600;28;21302;-82
2024/01/17 00:53:22;;;;;;;6.37;4.13;;;-5.70;99.90;;;-4.88;100.00;96733.13;5037717;28;20471;-82
2024/01/17 00:55:51;;;;;;;6.23;3.83;;;-5.60;99.90;;;-4.95;100.00;96727.72;5039112;28;20532;-82
2024/01/17 00:58:19;;;;;;;4.97;3.30;;;-5.70;99.90;;;-4.95;100.00;96730.28;5038809;28;20472;-83
2024/01/17 01:00:48;;;;;;;6.03;3.67;;;-5.70;99.90;;;-4.95;100.00;96732.00;5036387;28;20998;-82
2024/01/17 01:03:16;;;;;;;4.97;4.03;;;-5.70;99.90;;;-5.03;100.00;96727.53;5037275;28;20497;-82
2024/01/17 01:05:47;;;;;;;5.20;3.87;;;-5.70;99.90;;;-4.97;100.00;96728.81;5036701;28;20447;-81
2024/01/17 01:08:15;;;;;;;5.83;3.20;;;-5.60;99.90;;;-4.91;100.00;96726.56;5039357;28;20457;-81
2024/01/17 01:10:44;;;;;;;4.93;3.50;;;-5.60;99.90;;;-4.90;100.00;96724.81;5038800;28;20429;-82
2024/01/17 01:13:13;;;;;;;6.47;3.80;;;-5.50;99.90;;;-4.92;100.00;96724.94;5037799;28;20466;-82
2024/01/17 01:15:41;;;;;;;6.83;3.23;;;-5.60;99.90;;;-5.02;100.00;96720.69;5038842;28;20488;-82
2024/01/17 01:18:10;;;;;;;7.83;3.73;;;-5.70;99.90;;;-5.10;100.00;96718.78;5040412;28;20474;-82
2024/01/17 01:20:38;;;;;;;5.70;3.63;;;-5.80;99.90;;;-5.03;100.00;96704.59;5039782;28;20477;-81
2024/01/17 01:23:09;;;;;;;3.90;2.60;;;-5.70;99.90;;;-4.99;100.00;96698.34;5039146;28;20473;-82
2024/01/17 01:25:37;;;;;;;4.63;3.50;;;-5.70;99.90;;;-5.07;100.00;96700.72;5037319;28;20434;-82
2024/01/17 01:28:06;;;;;;;9.40;3.20;;;-5.80;99.90;;;-5.14;100.00;96697.03;5037844;28;20463;-82
2024/01/17 01:30:35;;;;;;;5.50;3.13;;;-5.90;99.90;;;-5.18;100.00;96698.22;5036803;28;20445;-82
2024/01/17 01:33:04;;;;;;;11.47;3.70;;;-5.90;99.90;;;-5.24;100.00;96686.00;5038659;28;20526;-82
2024/01/17 01:35:33;;;;;;;8.40;3.70;;;-5.90;99.90;;;-5.21;100.00;96676.34;5037395;28;20877;-82
2024/01/17 01:38:01;;;;;;;3.20;2.90;;;-5.90;99.90;;;-5.24;100.00;96680.91;5036483;28;20478;-82
2024/01/17 01:40:32;;;;;;;12.93;4.33;;;-6.00;99.90;;;-5.27;100.00;96681.13;5039766;28;20461;-82
2024/01/17 01:43:00;;;;;;;4.83;3.73;;;-6.00;99.90;;;-5.19;100.00;96674.47;5038702;28;20760;-81
2024/01/17 01:45:29;;;;;;;4.90;3.13;;;-5.90;99.90;;;-5.15;100.00;96663.13;5038949;28;20428;-83
2024/01/17 01:47:57;;;;;;;4.67;3.70;;;-5.90;99.90;;;-5.06;100.00;96648.81;5038361;28;21050;-82
2024/01/17 01:50:26;;;;;;;6.00;3.80;;;-5.80;99.90;;;-5.03;100.00;96651.09;5037485;28;20547;-82
2024/01/17 01:52:54;;;;;;;8.20;4.00;;;-5.70;99.90;;;-4.98;100.00;96649.00;5039295;28;20681;-82
2024/01/17 01:55:22;;;;;;;5.67;3.17;;;-5.60;99.90;;;-5.10;100.00;96647.44;5038043;28;20479;-82
2024/01/17 01:57:53;;;;;;;8.60;4.07;;;-5.80;99.90;;;-5.11;100.00;96640.75;5040168;28;21017;-83
2024/01/17 02:00:22;;;;;;;4.90;3.67;;;-5.80;99.90;;;-5.11;100.00;96641.56;5038006;28;20446;-82
2024/01/17 02:02:51;;;;;;;4.50;3.63;;;-5.80;99.90;;;-5.07;100.00;96637.03;5037717;28;20613;-82
2024/01/17 02:05:20;;;;;;;7.63;4.30;;;-5.80;99.90;;;-5.10;100.00;96629.59;5038062;28;21209;-82
2024/01/17 02:07:51;;;;;;;4.80;3.60;;;-5.80;99.90;;;-5.06;100.00;96623.34;5038350;28;20520;-82
2024/01/17 02:10:20;;;;;;;6.53;3.60;;;-5.70;99.90;;;-5.09;100.00;96633.78;5034618;28;20435;-82
2024/01/17 02:12:49;;;;;;;4.97;3.40;;;-5.80;99.90;;;-5.12;100.00;96627.19;5037646;28;20472;-81
2024/01/17 02:15:19;;;;;;;5.50;3.47;;;-5.80;99.90;;;-5.10;100.00;96619.41;5036940;28;21158;-82
2024/01/17 02:17:48;;;;;;;5.87;3.60;;;-5.80;99.90;;;-5.16;100.00;96623.28;5035864;28;20457;-82
2024/01/17 02:20:15;;;;;;;6.77;3.07;;;-5.90;99.90;;;-5.11;100.00;96611.00;5038425;28;20481;-81
2024/01/17 02:22:44;;;;;;;8.07;4.47;;;-5.80;99.90;;;-5.18;100.00;96611.63;5036973;28;20461;-82
2024/01/17 02:25:14;;;;;;;5.33;3.20;;;-5.90;99.90;;;-5.15;100.00;96608.81;5038184;28;20453;-82
2024/01/17 02:27:42;;;;;;;6.03;3.87;;;-5.90;99.90;;;-5.13;100.00;96601.84;5039082;28;20465;-81
2024/01/17 02:30:15;;;;;;;3.50;3.13;;;-5.80;99.90;;;-5.18;100.00;96597.16;5042087;28;20790;-82
2024/01/17 02:32:44;;;;;;;3.63;2.60;;;-5.90;99.90;;;-5.20;100.00;96591.34;5045213;28;20436;-82
2024/01/17 02:35:13;;;;;;;6.63;3.40;;;-5.90;99.90;;;-5.24;100.00;96590.00;5042850;28;20808;-82
2024/01/17 02:37:42;;;;;;;5.97;3.87;;;-5.90;99.90;;;-5.28;100.00;96581.00;5042865;28;20614;-82
2024/01/17 02:40:10;;;;;;;4.47;3.37;;;-6.00;99.90;;;-5.31;100.00;96577.91;5041509;28;20468;-82
2024/01/17 02:42:40;;;;;;;5.20;3.10;;;-6.00;99.90;;;-5.32;100.00;96572.00;5042705;28;20802;-82
2024/01/17 02:45:09;;;;;;;5.17;4.10;;;-6.00;99.90;;;-5.22;100.00;96560.13;5040855;28;20440;-82
2024/01/17 02:47:38;;;;;;;18.90;4.13;;;-5.90;99.90;;;-5.17;100.00;96549.56;5040136;28;21023;-81
2024/01/17 02:50:07;;;;;;;4.90;3.43;;;-5.80;99.90;;;-5.28;100.00;96552.19;5040526;28;20441;-82
2024/01/17 02:52:36;;;;;;;11.27;3.57;;;-6.00;99.90;;;-5.23;100.00;96550.03;5041661;28;20452;-81
2024/01/17 02:55:05;;;;;;;7.33;3.00;;;-5.90;99.90;;;-5.17;100.00;96552.13;5040326;28;20445;-81
2024/01/17 02:57:34;;;;;;;7.83;3.60;;;-5.80;99.90;;;-5.18;100.00;96542.84;5042019;28;20869;-82
2024/01/17 03:00:05;;;;;;;4.13;2.83;;;-5.90;99.90;;;-5.21;100.00;96543.09;5040336;28;20441;-82
2024/01/17 03:02:34;;;;;;;9.23;3.40;;;-5.90;99.90;;;-5.26;100.00;96537.56;5041165;28;20491;-82
2024/01/17 03:05:04;;;;;;;9.70;3.73;;;-5.90;99.90;;;-5.20;100.00;96530.22;5040464;28;20925;-82
2024/01/17 03:07:33;;;;;;;4.97;3.50;;;-5.90;99.90;;;-5.25;100.00;96529.00;5041003;28;21010;-82
2024/01/17 03:10:02;;;;;;;5.60;3.67;;;-6.00;99.90;;;-5.23;100.00;96529.69;5040211;28;20471;-82
2024/01/17 03:12:30;;;;;;;4.20;3.20;;;-5.90;99.90;;;-5.27;100.00;96518.13;5041461;28;20537;-82
2024/01/17 03:14:59;;;;;;;5.37;3.27;;;-6.00;99.90;;;-5.20;100.00;96524.31;5041504;28;20444;-82
2024/01/17 03:17:29;;;;;;;4.60;4.00;;;-5.90;99.90;;;-5.24;100.00;96512.81;5040069;28;20445;-82
2024/01/17 03:19:58;;;;;;;4.90;3.30;;;-5.90;99.90;;;-5.28;100.00;96514.78;5041131;28;20954;-82
2024/01/17 03:22:26;;;;;;;5.53;3.03;;;-6.00;99.90;;;-5.20;100.00;96514.94;5039731;28;20443;-82
2024/01/17 03:24:54;;;;;;;5.17;3.10;;;-5.90;99.90;;;-5.15;100.00;96506.94;5040555;28;20518;-82
2024/01/17 03:27:23;;;;;;;10.73;4.13;;;-5.90;99.90;;;-5.13;100.00;96498.22;5041659;28;20445;-82
2024/01/17 03:29:52;;;;;;;3.47;2.93;;;-5.80;99.90;;;-5.14;100.00;96493.25;5042339;28;20928;-81
2024/01/17 03:32:20;;;;;;;8.70;3.30;;;-5.80;99.90;;;-5.15;100.00;96491.66;5041093;28;20562;-81
2024/01/17 03:34:51;;;;;;;4.33;3.00;;;-5.80;99.90;;;-5.26;100.00;96479.00;5041030;28;20462;-82
2024/01/17 03:37:20;;;;;;;8.77;3.03;;;-6.00;99.90;;;-5.27;100.00;96477.38;5039651;28;20590;-81
2024/01/17 03:39:49;;;;;;;3.47;2.70;;;-6.00;99.90;;;-5.16;100.00;96474.75;5039247;28;20448;-77
2024/01/17 03:42:17;;;;;;;10.67;4.03;;;-5.80;99.90;;;-5.11;100.00;96468.34;5037210;28;20495;-82
2024/01/17 03:44:47;;;;;;;3.50;3.03;;;-5.60;99.90;;;-5.09;100.00;96463.09;5040749;28;20480;-82
2024/01/17 03:47:15;;;;;;;7.00;3.20;;;-5.80;99.90;;;-5.12;100.00;96460.81;5039302;28;20476;-82
2024/01/17 03:49:44;;;;;;;5.37;3.20;;;-5.80;99.90;;;-5.06;100.00;96437.38;5038949;28;20440;-82
2024/01/17 03:52:14;;;;;;;6.30;3.20;;;-5.70;99.90;;;-5.01;100.00;96437.78;5040981;28;20447;-82
2024/01/17 03:54:42;;;;;;;7.50;2.67;;;-5.70;99.90;;;-5.02;100.00;96425.97;5041386;28;20464;-81
2024/01/17 03:57:11;;;;;;;7.37;3.80;;;-5.70;99.90;;;-5.00;100.00;96419.03;5041747;28;20527;-78
2024/01/17 03:59:44;;;;;;;5.83;3.77;;;-5.60;99.90;;;-4.97;100.00;96411.13;5042762;28;20522;-80
2024/01/17 04:02:12;;;;;;;5.00;3.50;;;-5.60;99.90;;;-4.96;100.00;96399.97;5037119;28;20805;-80
2024/01/17 04:04:41;;;;;;;6.40;2.70;;;-5.60;99.90;;;-4.95;100.00;96388.03;5040621;28;20525;-79
2024/01/17 04:07:10;;;;;;;7.13;2.93;;;-5.60;99.90;;;-4.96;100.00;96378.81;5040577;28;21121;-80
2024/01/17 04:09:41;;;;;;;6.10;4.10;;;-5.70;99.90;;;-4.95;100.00;96355.72;5035811;28;20440;-77
2024/01/17 04:12:09;;;;;;;8.30;4.47;;;-5.60;99.90;;;-4.94;100.00;96356.53;5037726;28;20931;-83
2024/01/17 04:14:38;;;;;;;7.07;3.73;;;-5.60;99.90;;;-4.95;100.00;96345.53;5037275;28;20733;-80
2024/01/17 04:17:07;;;;;;;8.90;4.00;;;-5.60;99.90;;;-4.93;100.00;96340.31;5039776;28;20471;-80
2024/01/17 04:19:36;;;;;;;5.40;3.77;;;-5.60;99.90;;;-4.93;100.00;96330.94;5037404;28;20644;-81
2024/01/17 04:22:04;;;;;;;6.20;3.93;;;-5.60;99.90;;;-4.93;100.00;96338.56;5038542;28;21046;-80
2024/01/17 04:24:33;;;;;;;9.20;3.50;;;-5.60;99.90;;;-4.88;100.00;96330.50;5038748;28;20861;-81
2024/01/17 04:27:03;;;;;;;3.67;3.33;;;-5.60;99.90;;;-4.84;100.00;96334.41;5037165;28;20943;-80
2024/01/17 04:29:32;;;;;;;8.73;3.70;;;-5.50;99.90;;;-4.82;100.00;96325.66;5040966;28;20463;-81
2024/01/17 04:32:00;;;;;;;3.73;2.80;;;-5.50;99.90;;;-4.79;100.00;96334.81;5042251;28;20793;-80
2024/01/17 04:34:29;;;;;;;5.70;3.87;;;-5.50;99.90;;;-4.75;100.00;96320.84;5040733;28;20447;-80
2024/01/17 04:36:58;;;;;;;5.43;3.57;;;-5.40;99.90;;;-4.78;100.00;96306.63;5039761;28;20557;-80
2024/01/17 04:39:26;;;;;;;12.73;4.10;;;-5.50;99.90;;;-4.78;100.00;96298.97;5039379;28;20469;-80
2024/01/17 04:41:56;;;;;;;7.50;3.73;;;-5.50;99.90;;;-4.73;100.00;96293.47;5040515;28;20452;-81
2024/01/17 04:44:30;;;;;;;4.57;2.93;;;-5.40;99.90;;;-4.76;100.00;96284.38;5038873;28;20977;-80
2024/01/17 04:46:58;;;;;;;4.37;2.87;;;-5.40;99.90;;;-4.73;100.00;96283.28;5037482;28;20442;-80
2024/01/17 04:49:27;;;;;;;4.20;3.40;;;-5.40;99.90;;;-4.75;100.00;96280.88;5038341;28;20447;-81
2024/01/17 04:51:57;;;;;;;7.57;3.90;;;-5.40;99.90;;;-4.79;100.00;96282.06;5039927;28;20431;-79
2024/01/17 04:54:27;;;;;;;7.53;3.37;;;-5.40;99.90;;;-4.76;100.00;96274.19;5038281;28;20488;-81
2024/01/17 04:56:55;;;;;;;8.50;4.03;;;-5.40;99.90;;;-4.78;100.00;96270.94;5037804;28;20483;-82
2024/01/17 04:59:26;;;;;;;8.10;3.60;;;-5.40;99.90;;;-4.80;100.00;96267.75;5038470;28;20469;-81
2024/01/17 05:01:54;;;;;;;4.07;3.50;;;-5.40;99.90;;;-4.72;100.00;96264.50;5039972;28;21018;-82
2024/01/17 05:04:23;;;;;;;4.97;3.00;;;-5.40;99.90;;;-4.70;100.00;96255.78;5038984;28;20494;-82
2024/01/17 05:06:52;;;;;;;9.30;3.10;;;-5.30;99.90;;;-4.63;100.00;96254.28;5039179;28;20462;-81
2024/01/17 05:09:21;;;;;;;4.67;3.03;;;-5.30;99.90;;;-4.60;100.00;96243.00;5038355;28;20615;-82
2024/01/17 05:11:50;;;;;;;6.47;4.10;;;-5.20;99.90;;;-4.58;100.00;96247.03;5039973;28;20549;-81
2024/01/17 05:14:18;;;;;;;6.83;3.93;;;-5.20;99.90;;;-4.60;100.00;96243.81;5043712;28;20475;-81
2024/01/17 05:16:48;;;;;;;3.90;3.50;;;-5.20;99.90;;;-4.59;100.00;96235.22;5037658;28;20432;-77
2024/01/17 05:19:17;;;;;;;7.63;3.87;;;-5.10;99.90;;;-4.54;100.00;96241.63;5034399;28;20562;-83
2024/01/17 05:21:46;;;;;;;4.97;3.70;;;-5.10;99.90;;;-4.49;100.00;96234.38;5036319;28;20455;-81
2024/01/17 05:24:15;;;;;;;9.43;4.47;;;-5.10;99.90;;;-4.45;100.00;96231.44;5037567;28;20486;-81
2024/01/17 05:26:44;;;;;;;5.23;3.60;;;-5.00;99.90;;;-4.36;100.00;96224.66;5042878;28;20544;-81
2024/01/17 05:29:13;;;;;;;4.60;3.00;;;-5.00;99.90;;;-4.31;100.00;96227.63;5037588;28;20477;-80
2024/01/17 05:31:42;;;;;;;11.10;3.83;;;-5.00;99.90;;;-4.26;100.00;96210.13;5035334;28;20477;-79
2024/01/17 05:34:11;;;;;;;7.00;3.80;;;-4.90;99.90;;;-4.24;100.00;96203.16;5035208;28;20457;-80
2024/01/17 05:36:43;;;;;;;6.63;3.60;;;-4.90;99.90;;;-4.20;100.00;96199.38;5035520;28;20559;-79
2024/01/17 05:39:12;;;;;;;6.90;3.90;;;-4.80;99.90;;;-4.22;100.00;96185.94;5041700;28;20551;-79
2024/01/17 05:41:41;;;;;;;4.80;3.50;;;-4.90;99.90;;;-4.25;100.00;96186.25;5041126;28;20500;-79
2024/01/17 05:44:09;;;;;;;6.40;3.50;;;-4.90;99.90;;;-4.26;100.00;96184.63;5038875;28;20524;-79
2024/01/17 05:46:42;;;;;;;6.30;3.23;;;-5.00;99.90;;;-4.28;100.00;96176.31;5040929;28;20470;-78
2024/01/17 05:49:12;;;;;;;3.20;2.77;;;-5.00;99.90;;;-4.25;100.00;96170.94;5041368;28;20477;-79
2024/01/17 05:51:41;;;;;;;22.80;3.33;;;-5.00;99.90;;;-4.25;100.00;96173.47;5042341;28;21040;-78
2024/01/17 05:54:09;;;;;;;5.33;3.20;;;-4.90;99.90;;;-4.24;100.00;96168.25;5041483;28;20476;-79
2024/01/17 05:56:38;;;;;;;5.50;3.57;;;-4.90;99.90;;;-4.21;100.00;96165.41;5040950;28;20554;-79
2024/01/17 05:59:07;;;;;;;5.83;3.70;;;-4.90;99.90;;;-4.17;100.00;96153.19;5039530;28;20512;-78
2024/01/17 06:01:35;;;;;;;5.87;2.97;;;-4.90;99.90;;;-4.15;100.00;96146.16;5039187;28;20471;-79
2024/01/17 06:04:04;;;;;;;3.70;3.13;;;-4.90;99.90;;;-4.13;100.00;96146.84;5040273;28;20516;-78
2024/01/17 06:06:34;;;;;;;5.40;2.43;;;-4.90;99.90;;;-4.11;100.00;96139.84;5039193;28;20962;-79
2024/01/17 06:09:05;;;;;;;6.97;3.50;;;-4.70;99.90;;;-4.13;100.00;96134.88;5039350;28;20532;-79
2024/01/17 06:11:33;;;;;;;5.03;2.83;;;-4.80;99.90;;;-4.18;100.00;96123.50;5037313;28;20474;-78
2024/01/17 06:14:03;;;;;;;8.57;3.63;;;-4.90;99.90;;;-4.12;100.00;96115.25;5039777;28;20916;-79
2024/01/17 06:16:32;;;;;;;6.23;3.77;;;-4.80;99.90;;;-4.08;100.00;96121.69;5042313;28;20441;-78
2024/01/17 06:19:00;;;;;;;5.80;4.00;;;-4.80;99.90;;;-4.08;100.00;96116.59;5041157;28;20937;-79
2024/01/17 06:21:29;;;;;;;7.67;3.83;;;-4.70;99.90;;;-4.06;100.00;96112.94;5038970;28;20938;-78
2024/01/17 06:24:00;;;;;;;6.67;3.37;;;-4.80;99.90;;;-4.04;100.00;96112.81;5041346;28;20461;-78
2024/01/17 06:26:29;;;;;;;9.70;4.43;;;-4.80;99.90;;;-4.02;100.00;96099.88;5039909;28;20504;-79
2024/01/17 06:28:57;;;;;;;5.53;3.30;;;-4.70;99.90;;;-4.04;100.00;96102.59;5037116;28;20441;-79
2024/01/17 06:31:26;;;;;;;6.90;3.73;;;-4.80;99.90;;;-3.97;100.00;96093.41;5038541;28;20563;-79
2024/01/17 06:33:56;;;;;;;3.93;3.20;;;-4.70;99.90;;;-3.93;100.00;96092.19;5043161;28;20437;-79
2024/01/17 06:36:25;;;;;;;7.80;3.33;;;-4.60;99.90;;;-3.88;100.00;96084.88;5042641;28;20903;-79
2024/01/17 06:38:53;;;;;;;9.83;3.90;;;-4.60;99.90;;;-3.89;100.00;96080.72;5042091;28;20458;-77
2024/01/17 06:41:23;;;;;;;6.20;3.60;;;-4.60;99.90;;;-3.90;100.00;96068.91;5037357;28;20993;-78
2024/01/17 06:43:52;;;;;;;6.03;3.50;;;-4.60;99.90;;;-3.85;100.00;96071.03;5040320;28;20524;-79
2024/01/17 06:46:20;;;;;;;8.17;4.40;;;-4.50;99.90;;;-3.81;100.00;96072.31;5040678;28;20507;-80
2024/01/17 06:48:49;;;;;;;9.03;4.60;;;-4.50;99.90;;;-3.80;100.00;96071.38;5040742;28;20515;-79
2024/01/17 06:51:17;;;;;;;7.87;4.03;;;-4.50;99.90;;;-3.77;100.00;96059.13;5039979;28;21108;-79
2024/01/17 06:53:46;;;;;;;8.00;4.40;;;-4.50;99.90;;;-3.74;100.00;96061.38;5038665;28;20481;-79
2024/01/17 06:56:14;;;;;;;7.30;4.00;;;-4.40;99.90;;;-3.73;100.00;96054.53;5037966;28;20516;-79
2024/01/17 06:58:44;;;;;;;8.57;4.50;;;-4.40;99.90;;;-3.73;100.00;96047.66;5041205;28;20457;-79
2024/01/17 07:01:13;;;;;;;8.33;5.00;;;-4.40;99.90;;;-3.74;100.00;96056.25;5041338;28;20463;-79
2024/01/17 07:03:42;;;;;;;6.50;4.30;;;-4.40;99.90;;;-3.73;100.00;96050.22;5040358;28;20499;-79
2024/01/17 07:06:11;;;;;;;10.50;3.90;;;-4.40;99.90;;;-3.70;100.00;96039.72;5042468;28;20504;-79
2024/01/17 07:08:39;;;;;;;8.77;4.87;;;-4.40;99.90;;;-3.66;100.00;96035.09;5041622;28;20465;-79
2024/01/17 07:11:11;;;;;;;11.47;4.40;;;-4.40;99.90;;;-3.67;100.00;96033.50;5044706;28;20501;-79
2024/01/17 07:13:40;;;;;;;10.03;5.20;;;-4.40;99.90;;;-3.66;100.00;96022.34;5041864;28;20424;-79
2024/01/17 07:16:10;;;;;;;9.70;4.97;;;-4.40;99.90;;;-3.66;100.00;96020.59;5041890;28;20474;-78
2024/01/17 07:18:39;;;;;;;8.07;5.57;;;-4.40;99.90;;;-3.67;100.00;96013.88;5045301;28;20835;-79
2024/01/17 07:21:08;;;;;;;6.53;4.00;;;-4.40;99.90;;;-3.64;100.00;96012.75;5044571;28;20507;-78
2024/01/17 07:23:39;;;;;;;7.73;4.30;;;-4.40;99.90;;;-3.64;100.00;96005.91;5044677;28;20463;-79
2024/01/17 07:26:08;;;;;;;9.50;4.50;;;-4.40;99.90;;;-3.69;100.00;96000.47;5044599;28;20512;-79
2024/01/17 07:28:36;;;;;;;7.00;4.33;;;-4.40;99.90;;;-3.65;100.00;95996.66;5047296;28;20984;-78
2024/01/17 07:31:05;;;;;;;8.40;4.03;;;-4.40;99.90;;;-3.65;100.00;95991.56;5045517;28;20476;-78
2024/01/17 07:33:35;;;;;;;14.10;5.20;;;-4.40;99.90;;;-3.62;100.00;95988.72;5044448;28;20492;-78
2024/01/17 07:36:04;;;;;;;9.77;5.50;;;-4.30;99.90;;;-3.58;100.00;95987.47;5041459;28;20573;-78
2024/01/17 07:38:33;;;;;;;7.37;4.63;;;-4.30;99.90;;;-3.49;100.00;95979.81;5044559;28;20464;-78
2024/01/17 07:41:02;;;;;;;12.40;5.10;;;-4.20;99.90;;;-3.44;100.00;95967.41;5042918;28;20488;-78
2024/01/17 07:43:31;;;;;;;9.60;4.70;;;-4.10;99.90;;;-3.38;100.00;95964.25;5044029;28;20515;-78
2024/01/17 07:46:00;;;;;;;9.43;5.43;;;-4.10;99.90;;;-3.37;100.00;95958.19;5044302;28;20503;-78
2024/01/17 07:48:29;;;;;;;14.43;5.50;;;-4.10;99.90;;;-3.36;100.00;95955.47;5043316;28;21019;-79
2024/01/17 07:51:00;;;;;;;7.97;4.23;;;-4.00;99.90;;;-3.34;100.00;95947.66;5042592;28;21085;-79
2024/01/17 07:53:28;;;;;;;10.77;5.17;;;-4.10;99.90;;;-3.33;100.00;95941.59;5045590;28;20575;-78
2024/01/17 07:55:58;;;;;;;7.60;5.90;;;-4.10;99.90;;;-3.30;100.00;95933.63;5044656;28;20542;-79
2024/01/17 07:58:27;;;;;;;13.53;5.63;;;-4.00;99.90;;;-3.27;100.00;95930.75;5043100;28;20826;-79
2024/01/17 08:00:56;;;;;;;9.47;5.80;;;-4.00;99.90;;;-3.23;100.00;95929.50;5045288;28;20522;-79
2024/01/17 08:03:24;;;;;;;13.30;6.27;;;-3.90;99.90;;;-3.21;100.00;95928.38;5043377;28;20882;-79
2024/01/17 08:05:59;;;;;;;9.93;5.27;;;-3.90;99.90;;;-3.17;100.00;95922.03;5043448;28;20615;-79
2024/01/17 08:08:27;;;;;;;10.17;5.50;;;-3.90;99.90;;;-3.11;100.00;95918.03;5043845;28;20898;-79
2024/01/17 08:10:57;;;;;;;10.77;5.60;;;-3.80;99.90;;;-3.10;100.00;95911.97;5049201;28;20551;-79
2024/01/17 08:13:25;;;;;;;10.37;5.60;;;-3.70;99.90;;;-3.05;100.00;95902.06;5045438;28;20468;-79
2024/01/17 08:15:54;;;;;;;10.87;5.47;;;-3.70;99.90;;;-3.00;100.00;95899.84;5044115;28;20467;-78
2024/01/17 08:18:23;;;;;;;10.93;5.33;;;-3.70;99.90;;;-3.00;100.00;95899.84;5041251;28;20466;-78
2024/01/17 08:20:51;;;;;;;6.50;5.30;;;-3.70;99.90;;;-2.97;100.00;95889.31;5044680;28;20470;-79
2024/01/17 08:23:21;;;;;;;17.60;6.77;;;-3.70;99.90;;;-2.93;100.00;95882.94;5042704;28;21034;-78
2024/01/17 08:25:50;;;;;;;11.10;6.30;;;-3.60;99.90;;;-2.90;100.00;95874.94;5041483;28;20493;-79
2024/01/17 08:28:19;;;;;;;9.83;5.03;;;-3.60;99.90;;;-2.83;100.00;95870.81;5042879;28;20453;-78
2024/01/17 08:30:47;;;;;;;16.43;6.13;;;-3.50;99.90;;;-2.81;100.00;95868.88;5042982;28;20916;-79
2024/01/17 08:33:17;;;;;;;12.10;5.70;;;-3.40;99.90;;;-2.77;100.00;95862.50;5041795;28;20462;-79
2024/01/17 08:35:46;;;;;;;10.93;6.20;;;-3.40;99.90;;;-2.72;100.00;95859.47;5043542;28;20977;-78
2024/01/17 08:38:14;;;;;;;10.53;5.43;;;-3.30;99.90;;;-2.70;100.00;95852.44;5041871;28;20465;-79
2024/01/17 08:40:44;;;;;;;15.50;5.80;;;-3.20;99.90;;;-2.68;100.00;95853.88;5040671;28;20470;-79
2024/01/17 08:43:13;;;;;;;14.13;7.10;;;-3.30;99.90;;;-2.66;100.00;95846.84;5042276;28;20469;-79
2024/01/17 08:45:41;;;;;;;13.07;7.20;;;-3.30;99.90;;;-2.65;100.00;95843.34;5043496;28;20509;-79
2024/01/17 08:48:10;;;;;;;10.57;6.70;;;-3.30;99.90;;;-2.60;100.00;95838.53;5044497;28;20838;-79
2024/01/17 08:50:39;;;;;;;11.87;6.83;;;-3.20;99.90;;;-2.61;100.00;95834.41;5042820;28;20465;-78
2024/01/17 08:53:09;;;;;;;8.90;6.03;;;-3.20;99.90;;;-2.58;100.00;95826.41;5042465;28;20554;-79
2024/01/17 08:55:37;;;;;;;8.30;5.40;;;-3.20;99.90;;;-2.57;100.00;95815.19;5043818;28;20466;-79
2024/01/17 08:58:07;;;;;;;13.87;6.53;;;-3.20;99.90;;;-2.53;100.00;95804.66;5045126;28;20466;-79
2024/01/17 09:00:36;;;;;;;9.27;5.07;;;-3.20;99.90;;;-2.49;100.00;95793.91;5045480;28;20937;-78
2024/01/17 09:03:06;;;;;;;8.70;5.83;;;-3.10;99.90;;;-2.45;100.00;95790.09;5040323;28;20460;-79
2024/01/17 09:05:34;;;;;;;9.87;6.00;;;-3.10;99.90;;;-2.41;100.00;95782.88;5043105;28;20468;-79
2024/01/17 09:08:03;;;;;;;9.97;6.00;;;-2.90;99.90;;;-2.37;100.00;95776.47;5046308;28;20467;-79
2024/01/17 09:10:32;;;;;;;9.83;5.30;;;-3.00;99.90;;;-2.36;100.00;95775.53;5044923;28;20546;-79
2024/01/17 09:13:00;;;;;;;9.73;5.30;;;-3.00;99.90;;;-2.32;100.00;95764.78;5044404;28;21071;-78
2024/01/17 09:15:30;;;;;;;9.73;5.47;;;-2.90;99.90;;;-2.29;100.00;95759.34;5042811;28;20476;-79
2024/01/17 09:17:59;;;;;;;12.03;5.63;;;-2.90;99.90;;;-2.27;100.00;95754.06;5043655;28;20928;-79
2024/01/17 09:20:27;;;;;;;10.53;5.97;;;-2.90;99.90;;;-2.25;100.00;95752.13;5044055;28;20462;-79
2024/01/17 09:22:57;;;;;;;9.33;5.60;;;-2.90;99.90;;;-2.20;100.00;95732.78;5042722;28;20812;-78
2024/01/17 09:25:25;;;;;;;10.17;5.03;;;-2.90;99.90;;;-2.16;100.00;95738.34;5042659;28;20476;-78
2024/01/17 09:27:54;;;;;;;9.60;4.83;;;-2.80;99.90;;;-2.12;100.00;95742.19;5041014;28;20559;-79
2024/01/17 09:30:23;;;;;;;15.50;5.40;;;-2.70;99.90;;;-2.08;100.00;95738.31;5040443;28;20484;-78
2024/01/17 09:32:53;;;;;;;9.23;4.93;;;-2.60;99.90;;;-2.06;100.00;95726.16;5043010;28;20799;-79
2024/01/17 09:35:21;;;;;;;8.73;5.43;;;-2.60;99.90;;;-2.03;100.00;95736.88;5040263;28;20963;-79
2024/01/17 09:37:50;;;;;;;11.80;5.60;;;-2.60;99.90;;;-2.01;100.00;95733.34;5038642;28;20476;-79
2024/01/17 09:40:21;;;;;;;15.00;5.30;;;-2.60;99.90;;;-1.99;100.00;95724.53;5040887;28;20494;-79
2024/01/17 09:42:51;;;;;;;14.50;6.60;;;-2.60;99.90;;;-1.96;100.00;95720.81;5041722;28;20483;-80
2024/01/17 09:45:34;;;;;;;11.53;6.00;;;-2.60;99.90;;;-1.93;100.00;95716.16;5042600;28;20547;-79
2024/01/17 09:48:07;;;;;;;10.33;5.30;;;-2.60;99.90;;;-1.89;100.00;95714.88;5041810;28;20483;-78
2024/01/17 09:50:35;;;;;;;8.70;5.07;;;-2.50;99.90;;;-1.88;100.00;95710.56;5041424;28;20469;-79
2024/01/17 09:53:12;;;;;;;10.70;6.13;;;-2.50;99.90;;;-1.84;100.00;95704.13;5044561;28;20572;-79
2024/01/17 09:55:43;;;;;;;8.40;5.80;;;-2.50;99.90;;;-1.83;100.00;95691.16;5041073;28;20932;-79
2024/01/17 09:58:17;;;;;;;11.97;6.57;;;-2.40;99.90;;;-1.79;100.00;95689.06;5042810;28;20549;-78
2024/01/17 10:00:47;;;;;;;12.23;5.80;;;-2.40;99.90;;;-1.74;100.00;95684.22;5042844;28;20459;-79
2024/01/17 10:03:20;;;;;;;13.77;5.80;;;-2.40;99.90;;;-1.73;100.00;95676.38;5042520;28;20549;-78
2024/01/17 10:05:51;;;;;;;12.00;7.10;;;-2.30;99.90;;;-1.69;100.00;95666.56;5041658;28;20557;-78
2024/01/17 10:08:21;;;;;;;10.57;7.07;;;-2.30;99.90;;;-1.65;100.00;95653.28;5042645;28;20489;-79
2024/01/17 10:10:53;;;;;;;13.97;7.37;;;-2.30;99.90;;;-1.61;100.00;95657.09;5041184;28;20470;-79
2024/01/17 10:13:21;;;;;;;11.83;6.67;;;-2.20;99.90;;;-1.59;100.00;95652.56;5040745;28;20457;-78
2024/01/17 10:15:50;;;;;;;15.73;7.13;;;-2.20;99.90;;;-1.56;100.00;95647.09;5040846;28;20469;-78
2024/01/17 10:18:21;;;;;;;10.03;5.80;;;-2.20;99.90;;;-1.49;100.00;95641.31;5043120;28;20461;-79